createdAt,value
2018-07-06T00:00:15.108Z,101514.81
2018-07-06T00:02:55.140Z,101520.09
2018-07-06T00:05:35.129Z,101515.27
2018-07-06T00:08:15.180Z,101517.77
2018-07-06T00:10:55.219Z,101520.17
2018-07-06T00:13:35.266Z,101520.86
2018-07-06T00:16:15.387Z,101516.51
2018-07-06T00:18:55.470Z,101520.86
2018-07-06T00:21:35.679Z,101514.90
2018-07-06T00:24:15.681Z,101515.83
2018-07-06T00:26:55.557Z,101514.77
2018-07-06T00:29:35.628Z,101516.23
2018-07-06T00:32:15.411Z,101517.72
2018-07-06T00:34:55.529Z,101524.23
2018-07-06T00:37:35.891Z,101523.10
2018-07-06T00:40:16.046Z,101524.61
2018-07-06T00:42:56.012Z,101527.25
2018-07-06T00:45:35.866Z,101524.92
2018-07-06T00:48:16.190Z,101534.80
2018-07-06T00:50:56.210Z,101537.54
2018-07-06T00:53:36.709Z,101540.59
2018-07-06T00:56:16.675Z,101537.27
2018-07-06T00:58:56.546Z,101541.66
2018-07-06T01:01:36.469Z,101537.03
2018-07-06T01:04:16.787Z,101546.08
2018-07-06T01:06:56.872Z,101533.84
2018-07-06T01:09:36.728Z,101531.44
2018-07-06T01:12:21.888Z,101538.41
2018-07-06T01:15:05.839Z,101543.41
2018-07-06T01:17:46.032Z,101546.70
2018-07-06T01:20:26.341Z,101544.27
2018-07-06T01:23:10.351Z,101546.66
2018-07-06T01:25:50.233Z,101550.64
2018-07-06T01:28:30.297Z,101547.89
2018-07-06T01:31:10.504Z,101547.75
2018-07-06T01:33:50.484Z,101546.83
2018-07-06T01:36:30.906Z,101549.66
2018-07-06T01:39:11.151Z,101551.38
2018-07-06T01:41:51.254Z,101558.23
2018-07-06T01:44:31.333Z,101557.89
2018-07-06T01:47:11.319Z,101560.97
2018-07-06T01:49:51.036Z,101560.52
2018-07-06T01:52:32.054Z,101564.20
2018-07-06T01:55:11.922Z,101564.05
2018-07-06T01:57:51.861Z,101565.48
2018-07-06T02:00:32.058Z,101564.79
2018-07-06T02:03:11.938Z,101567.09
2018-07-06T02:05:51.820Z,101567.91
2018-07-06T02:08:32.329Z,101574.97
2018-07-06T02:11:12.576Z,101573.70
2018-07-06T02:13:53.090Z,101569.73
2018-07-06T02:16:32.938Z,101571.19
2018-07-06T02:19:12.818Z,101579.03
2018-07-06T02:21:52.542Z,101577.30
2018-07-06T02:24:32.684Z,101576.81
2018-07-06T02:27:12.845Z,101581.51
2018-07-06T02:29:52.730Z,101571.63
2018-07-06T02:32:32.627Z,101572.45
2018-07-06T02:35:12.819Z,101573.23
2018-07-06T02:37:53.067Z,101577.69
2018-07-06T02:40:33.882Z,101574.27
2018-07-06T02:43:14.238Z,101578.05
2018-07-06T02:45:54.499Z,101580.69
2018-07-06T02:48:34.426Z,101571.67
2018-07-06T02:51:14.326Z,101572.46
2018-07-06T02:53:54.653Z,101567.90
2018-07-06T02:56:34.716Z,101572.34
2018-07-06T02:59:15.403Z,101578.05
2018-07-06T03:01:55.690Z,101576.36
2018-07-06T03:04:35.896Z,101576.23
2018-07-06T03:07:15.652Z,101584.16
2018-07-06T03:09:55.789Z,101583.58
2018-07-06T03:12:35.824Z,101583.23
2018-07-06T03:15:16.046Z,101578.00
2018-07-06T03:17:55.950Z,101583.14
2018-07-06T03:20:35.793Z,101581.19
2018-07-06T03:23:16.276Z,101582.69
2018-07-06T03:25:56.531Z,101584.05
2018-07-06T03:28:36.397Z,101585.00
2018-07-06T03:31:16.341Z,101587.73
2018-07-06T03:33:56.688Z,101582.95
2018-07-06T03:36:36.648Z,101582.06
2018-07-06T03:39:16.795Z,101588.09
2018-07-06T03:41:56.519Z,101589.13
2018-07-06T03:44:36.454Z,101586.38
2018-07-06T03:47:17.116Z,101588.33
2018-07-06T03:49:57.177Z,101585.35
2018-07-06T03:52:37.264Z,101593.03
2018-07-06T03:55:21.615Z,101594.70
2018-07-06T03:58:03.296Z,101601.44
2018-07-06T04:00:43.182Z,101605.77
2018-07-06T04:03:23.069Z,101599.73
2018-07-06T04:06:03.344Z,101605.31
2018-07-06T04:08:43.402Z,101605.41
2018-07-06T04:11:23.140Z,101607.81
2018-07-06T04:14:02.947Z,101605.77
2018-07-06T04:16:43.271Z,101608.99
2018-07-06T04:19:23.449Z,101616.09
2018-07-06T04:22:03.375Z,101610.60
2018-07-06T04:24:43.295Z,101621.13
2018-07-06T04:27:23.141Z,101621.03
2018-07-06T04:30:03.452Z,101619.77
2018-07-06T04:32:43.344Z,101621.68
2018-07-06T04:35:23.862Z,101625.70
2018-07-06T04:38:03.554Z,101628.14
2018-07-06T04:40:43.671Z,101626.42
2018-07-06T04:43:23.419Z,101625.84
2018-07-06T04:46:03.429Z,101628.97
2018-07-06T04:48:43.469Z,101627.95
2018-07-06T04:51:23.651Z,101628.66
2018-07-06T04:54:03.601Z,101625.81
2018-07-06T04:56:43.535Z,101626.53
2018-07-06T04:59:23.789Z,101624.25
2018-07-06T05:02:03.532Z,101623.45
2018-07-06T05:04:43.402Z,101627.81
2018-07-06T05:07:23.676Z,101626.10
2018-07-06T05:10:03.787Z,101628.27
2018-07-06T05:12:44.001Z,101637.77
2018-07-06T05:15:24.196Z,101631.59
2018-07-06T05:18:04.105Z,101633.01
2018-07-06T05:20:43.887Z,101637.27
2018-07-06T05:23:23.600Z,101635.31
2018-07-06T05:26:03.407Z,101638.98
2018-07-06T05:28:43.740Z,101652.66
2018-07-06T05:31:23.698Z,101651.72
2018-07-06T05:34:03.773Z,101656.97
2018-07-06T05:36:43.583Z,101657.45
2018-07-06T05:39:23.941Z,101662.11
2018-07-06T05:42:03.761Z,101670.94
2018-07-06T05:44:43.763Z,101668.72
2018-07-06T05:47:23.517Z,101674.11
2018-07-06T05:50:03.621Z,101677.30
2018-07-06T05:52:43.709Z,101688.60
2018-07-06T05:55:23.575Z,101685.41
2018-07-06T05:58:04.253Z,101691.92
2018-07-06T06:00:44.365Z,101693.39
2018-07-06T06:03:24.228Z,101692.96
2018-07-06T06:06:03.950Z,101702.22
2018-07-06T06:08:32.231Z,101704.17
2018-07-06T06:11:01.425Z,101702.82
2018-07-06T06:13:30.183Z,101707.18
2018-07-06T06:15:59.035Z,101707.52
2018-07-06T06:18:27.852Z,101709.47
2018-07-06T06:20:56.947Z,101715.50
2018-07-06T06:23:26.043Z,101710.26
2018-07-06T06:25:55.325Z,101718.94
2018-07-06T06:28:24.389Z,101719.67
2018-07-06T06:30:53.388Z,101721.98
2018-07-06T06:33:22.324Z,101722.86
2018-07-06T06:35:51.250Z,101723.11
2018-07-06T06:38:20.400Z,101728.64
2018-07-06T06:40:49.445Z,101725.06
2018-07-06T06:43:19.124Z,101724.52
2018-07-06T06:45:48.267Z,101727.51
2018-07-06T06:48:17.002Z,101733.70
2018-07-06T06:50:46.749Z,101730.80
2018-07-06T06:53:15.544Z,101732.80
2018-07-06T06:55:45.366Z,101737.07
2018-07-06T06:58:14.200Z,101737.52
2018-07-06T07:00:44.539Z,101738.89
2018-07-06T07:03:13.838Z,101737.66
2018-07-06T07:05:42.894Z,101745.25
2018-07-06T07:08:12.400Z,101743.09
2018-07-06T07:10:41.181Z,101742.25
2018-07-06T07:13:10.583Z,101740.70
2018-07-06T07:15:39.787Z,101744.22
2018-07-06T07:18:08.908Z,101737.98
2018-07-06T07:20:37.670Z,101745.66
2018-07-06T07:23:07.333Z,101744.97
2018-07-06T07:25:36.084Z,101743.38
2018-07-06T07:28:05.363Z,101745.80
2018-07-06T07:30:34.125Z,101757.80
2018-07-06T07:33:02.858Z,101760.09
2018-07-06T07:35:32.153Z,101759.89
2018-07-06T07:38:01.579Z,101758.63
2018-07-06T07:40:30.987Z,101757.84
2018-07-06T07:43:00.142Z,101764.03
2018-07-06T07:45:29.031Z,101759.21
2018-07-06T07:47:58.971Z,101759.97
2018-07-06T07:50:28.233Z,101764.41
2018-07-06T07:53:08.254Z,101763.69
2018-07-06T07:55:37.176Z,101765.52
2018-07-06T07:58:06.370Z,101767.62
2018-07-06T08:00:35.851Z,101771.92
2018-07-06T08:03:04.653Z,101769.94
2018-07-06T08:05:33.725Z,101771.69
2018-07-06T08:08:02.550Z,101769.10
2018-07-06T08:10:31.579Z,101781.95
2018-07-06T08:13:00.735Z,101770.76
2018-07-06T08:15:30.178Z,101775.29
2018-07-06T08:17:59.030Z,101774.23
2018-07-06T08:20:28.230Z,101777.83
2018-07-06T08:23:00.087Z,101776.51
2018-07-06T08:25:29.202Z,101784.92
2018-07-06T08:27:59.273Z,101781.33
2018-07-06T08:30:28.055Z,101782.59
2018-07-06T08:32:57.372Z,101787.48
2018-07-06T08:35:37.352Z,101786.29
2018-07-06T08:38:06.970Z,101782.31
2018-07-06T08:40:36.251Z,101787.47
2018-07-06T08:43:06.090Z,101788.78
2018-07-06T08:45:35.972Z,101793.09
2018-07-06T08:48:05.074Z,101798.52
2018-07-06T08:50:34.232Z,101801.83
2018-07-06T08:53:03.102Z,101798.48
2018-07-06T08:55:32.034Z,101793.94
2018-07-06T08:58:00.830Z,101800.19
2018-07-06T09:00:29.915Z,101802.39
2018-07-06T09:02:59.102Z,101800.94
2018-07-06T09:05:27.975Z,101796.06
2018-07-06T09:07:57.779Z,101801.83
2018-07-06T09:10:26.618Z,101805.23
2018-07-06T09:12:55.502Z,101803.95
2018-07-06T09:15:24.916Z,101802.46
2018-07-06T09:17:53.885Z,101807.53
2018-07-06T09:20:23.027Z,101810.33
2018-07-06T09:22:52.358Z,101810.05
2018-07-06T09:25:21.590Z,101811.12
2018-07-06T09:27:50.712Z,101816.59
2018-07-06T09:30:19.440Z,101816.50
2018-07-06T09:32:49.125Z,101811.94
2018-07-06T09:35:18.567Z,101810.91
2018-07-06T09:37:47.471Z,101808.88
2018-07-06T09:40:16.267Z,101814.70
2018-07-06T09:42:45.613Z,101816.66
2018-07-06T09:45:14.551Z,101816.27
2018-07-06T09:47:43.960Z,101820.83
2018-07-06T09:50:13.190Z,101813.27
2018-07-06T09:52:42.541Z,101819.01
2018-07-06T09:55:11.648Z,101816.44
2018-07-06T09:57:41.156Z,101826.30
2018-07-06T10:00:13.466Z,101824.10
2018-07-06T10:02:42.480Z,101809.11
2018-07-06T10:05:11.813Z,101816.05
2018-07-06T10:07:40.571Z,101819.34
2018-07-06T10:10:09.777Z,101824.11
2018-07-06T10:12:38.834Z,101825.74
2018-07-06T10:15:07.837Z,101836.19
2018-07-06T10:17:36.628Z,101834.58
2018-07-06T10:20:05.699Z,101844.75
2018-07-06T10:22:35.389Z,101844.13
2018-07-06T10:25:04.112Z,101843.78
2018-07-06T10:27:44.144Z,101837.19
2018-07-06T10:30:30.346Z,101838.08
2018-07-06T10:32:59.283Z,101848.05
2018-07-06T10:35:28.278Z,101856.13
2018-07-06T10:37:57.015Z,101850.52
2018-07-06T10:40:26.341Z,101844.84
2018-07-06T10:42:55.380Z,101850.48
2018-07-06T10:45:24.653Z,101847.55
2018-07-06T10:47:53.424Z,101859.56
2018-07-06T10:50:22.770Z,101861.33
2018-07-06T10:52:51.534Z,101855.11
2018-07-06T10:55:20.526Z,101858.72
2018-07-06T10:57:49.539Z,101865.61
2018-07-06T11:00:18.660Z,101864.44
2018-07-06T11:02:47.510Z,101859.60
2018-07-06T11:05:17.012Z,101860.71
2018-07-06T11:07:46.403Z,101858.55
2018-07-06T11:10:15.719Z,101870.96
2018-07-06T11:12:44.823Z,101867.29
2018-07-06T11:15:14.124Z,101864.13
2018-07-06T11:17:42.974Z,101867.36
2018-07-06T11:20:12.430Z,101876.56
2018-07-06T11:22:41.519Z,101873.45
2018-07-06T11:25:10.515Z,101864.78
2018-07-06T11:27:39.835Z,101870.37
2018-07-06T11:30:08.870Z,101872.23
2018-07-06T11:32:37.938Z,101867.12
2018-07-06T11:35:06.923Z,101875.17
2018-07-06T11:37:37.163Z,101870.09
2018-07-06T11:40:06.549Z,101866.77
2018-07-06T11:42:35.585Z,101875.84
2018-07-06T11:45:04.743Z,101869.85
2018-07-06T11:47:33.736Z,101871.38
2018-07-06T11:50:02.775Z,101867.14
2018-07-06T11:52:31.523Z,101861.91
2018-07-06T11:55:00.366Z,101872.20
2018-07-06T11:57:29.484Z,101881.48
2018-07-06T11:59:58.655Z,101868.50
2018-07-06T12:02:27.597Z,101881.25
2018-07-06T12:04:56.770Z,101874.98
2018-07-06T12:07:25.640Z,101878.83
2018-07-06T12:09:54.794Z,101866.27
2018-07-06T12:12:23.958Z,101872.64
2018-07-06T12:14:53.223Z,101873.42
2018-07-06T12:17:22.201Z,101869.05
2018-07-06T12:19:51.472Z,101867.66
2018-07-06T12:22:20.766Z,101879.41
2018-07-06T12:24:50.064Z,101871.64
2018-07-06T12:27:18.909Z,101865.89
2018-07-06T12:29:48.352Z,101868.30
2018-07-06T12:32:17.201Z,101866.86
2018-07-06T12:34:46.299Z,101868.61
2018-07-06T12:37:16.005Z,101865.81
2018-07-06T12:39:45.143Z,101863.20
2018-07-06T12:42:14.354Z,101870.28
2018-07-06T12:44:43.346Z,101865.38
2018-07-06T12:47:12.613Z,101873.20
2018-07-06T12:49:41.809Z,101869.80
2018-07-06T12:52:11.036Z,101872.76
2018-07-06T12:54:40.728Z,101877.15
2018-07-06T12:57:09.990Z,101865.37
2018-07-06T12:59:39.023Z,101868.23
2018-07-06T13:02:07.946Z,101867.90
2018-07-06T13:04:37.134Z,101863.50
2018-07-06T13:07:07.088Z,101865.61
2018-07-06T13:09:36.072Z,101873.95
2018-07-06T13:12:05.063Z,101872.96
2018-07-06T13:14:34.696Z,101874.36
2018-07-06T13:17:03.856Z,101873.32
2018-07-06T13:19:32.777Z,101872.14
2018-07-06T13:22:02.037Z,101868.46
2018-07-06T13:24:31.265Z,101871.39
2018-07-06T13:27:00.227Z,101876.79
2018-07-06T13:29:29.261Z,101881.37
2018-07-06T13:31:58.186Z,101870.96
2018-07-06T13:34:27.245Z,101869.42
2018-07-06T13:36:56.234Z,101870.48
2018-07-06T13:39:25.658Z,101872.56
2018-07-06T13:41:54.657Z,101870.08
2018-07-06T13:44:24.100Z,101873.12
2018-07-06T13:46:53.656Z,101883.72
2018-07-06T13:49:23.108Z,101890.70
2018-07-06T13:51:52.365Z,101888.14
2018-07-06T13:54:21.239Z,101883.52
2018-07-06T13:56:50.173Z,101877.06
2018-07-06T13:59:19.282Z,101886.80
2018-07-06T14:01:48.474Z,101892.20
2018-07-06T14:04:17.291Z,101892.70
2018-07-06T14:06:46.241Z,101891.75
2018-07-06T14:09:15.134Z,101890.61
2018-07-06T14:11:44.717Z,101896.04
2018-07-06T14:14:14.308Z,101901.05
2018-07-06T14:16:43.317Z,101906.02
2018-07-06T14:19:12.608Z,101900.63
2018-07-06T14:21:41.846Z,101907.45
2018-07-06T14:24:11.274Z,101906.05
2018-07-06T14:26:40.844Z,101903.67
2018-07-06T14:29:10.114Z,101906.31
2018-07-06T14:31:39.280Z,101906.30
2018-07-06T14:34:08.252Z,101909.32
2018-07-06T14:36:37.264Z,101911.86
2018-07-06T14:39:07.275Z,101920.02
2018-07-06T14:41:36.936Z,101912.26
2018-07-06T14:44:06.262Z,101919.67
2018-07-06T14:46:35.471Z,101910.06
2018-07-06T14:49:05.209Z,101922.86
2018-07-06T14:51:34.129Z,101915.09
2018-07-06T14:54:03.351Z,101917.87
2018-07-06T14:56:32.647Z,101923.45
2018-07-06T14:59:01.852Z,101919.49
2018-07-06T15:01:31.359Z,101924.23
2018-07-06T15:04:00.789Z,101921.81
2018-07-06T15:06:29.741Z,101925.18
2018-07-06T15:08:59.128Z,101923.75
2018-07-06T15:11:28.089Z,101917.81
2018-07-06T15:13:56.984Z,101929.62
2018-07-06T15:16:26.008Z,101935.88
2018-07-06T15:18:54.781Z,101928.98
2018-07-06T15:21:23.715Z,101936.53
2018-07-06T15:23:52.837Z,101937.73
2018-07-06T15:26:22.015Z,101938.03
2018-07-06T15:28:51.752Z,101946.23
2018-07-06T15:31:20.706Z,101947.78
2018-07-06T15:33:49.595Z,101947.33
2018-07-06T15:36:18.831Z,101944.22
2018-07-06T15:38:48.214Z,101953.89
2018-07-06T15:41:17.135Z,101953.08
2018-07-06T15:43:46.052Z,101941.86
2018-07-06T15:46:14.872Z,101948.94
2018-07-06T15:48:44.083Z,101938.27
2018-07-06T15:51:12.891Z,101943.07
2018-07-06T15:53:42.250Z,101939.37
2018-07-06T15:56:11.224Z,101953.91
2018-07-06T15:58:40.141Z,101949.52
2018-07-06T16:01:09.752Z,101946.44
2018-07-06T16:03:39.177Z,101948.19
2018-07-06T16:06:08.853Z,101956.00
2018-07-06T16:08:38.203Z,101948.02
2018-07-06T16:11:07.630Z,101949.59
2018-07-06T16:13:36.845Z,101947.70
2018-07-06T16:16:07.027Z,101943.58
2018-07-06T16:18:35.898Z,101950.83
2018-07-06T16:21:04.818Z,101950.85
2018-07-06T16:23:33.792Z,101948.07
2018-07-06T16:26:02.683Z,101950.05
2018-07-06T16:28:31.914Z,101945.96
2018-07-06T16:31:00.757Z,101952.77
2018-07-06T16:33:29.749Z,101947.52
2018-07-06T16:35:58.948Z,101935.81
2018-07-06T16:38:28.408Z,101940.59
2018-07-06T16:40:57.417Z,101944.30
2018-07-06T16:43:26.512Z,101944.02
2018-07-06T16:45:56.310Z,101939.38
2018-07-06T16:48:25.838Z,101941.52
2018-07-06T16:50:54.683Z,101944.70
2018-07-06T16:53:23.944Z,101941.52
2018-07-06T16:55:53.171Z,101940.91
2018-07-06T16:58:22.882Z,101944.03
2018-07-06T17:00:51.794Z,101946.81
2018-07-06T17:03:20.892Z,101949.38
2018-07-06T17:05:50.110Z,101941.85
2018-07-06T17:08:18.989Z,101952.33
2018-07-06T17:10:47.929Z,101947.55
2018-07-06T17:13:16.822Z,101948.00
2018-07-06T17:15:46.186Z,101952.72
2018-07-06T17:18:15.116Z,101943.71
2018-07-06T17:20:44.568Z,101945.19
2018-07-06T17:23:13.649Z,101944.64
2018-07-06T17:25:42.646Z,101949.52
2018-07-06T17:28:11.758Z,101945.41
2018-07-06T17:30:41.285Z,101952.93
2018-07-06T17:33:10.633Z,101951.87
2018-07-06T17:35:39.827Z,101950.27
2018-07-06T17:38:09.024Z,101948.08
2018-07-06T17:40:37.967Z,101951.86
2018-07-06T17:43:07.108Z,101951.48
2018-07-06T17:45:36.500Z,101952.87
2018-07-06T17:48:05.373Z,101965.83
2018-07-06T17:50:34.405Z,101954.36
2018-07-06T17:53:04.080Z,101969.07
2018-07-06T17:55:33.481Z,101969.96
2018-07-06T17:58:02.295Z,101962.34
2018-07-06T18:00:31.042Z,101970.96
2018-07-06T18:03:00.525Z,101975.38
2018-07-06T18:05:29.608Z,101980.87
2018-07-06T18:07:58.439Z,101982.56
2018-07-06T18:10:27.631Z,101978.94
2018-07-06T18:12:56.821Z,101981.95
2018-07-06T18:15:25.690Z,101986.98
2018-07-06T18:17:54.533Z,101984.64
2018-07-06T18:20:23.366Z,101986.58
2018-07-06T18:22:52.314Z,101982.48
2018-07-06T18:25:21.307Z,101986.63
2018-07-06T18:27:50.056Z,101983.95
2018-07-06T18:30:18.837Z,101992.16
2018-07-06T18:32:47.764Z,101993.68
2018-07-06T18:35:16.600Z,101991.66
2018-07-06T18:37:46.466Z,101991.48
2018-07-06T18:40:15.886Z,101997.70
2018-07-06T18:42:45.567Z,101995.42
2018-07-06T18:45:15.006Z,101996.70
2018-07-06T18:47:43.787Z,101999.40
2018-07-06T18:50:13.222Z,101997.41
2018-07-06T18:52:43.473Z,101997.25
2018-07-06T18:55:13.020Z,101991.91
2018-07-06T18:57:42.602Z,101997.22
2018-07-06T19:00:12.855Z,101997.62
2018-07-06T19:02:43.423Z,102007.62
2018-07-06T19:05:13.122Z,102006.84
2018-07-06T19:07:42.340Z,102002.97
2018-07-06T19:10:11.509Z,102006.09
2018-07-06T19:12:41.010Z,102004.36
2018-07-06T19:15:10.316Z,102002.39
2018-07-06T19:17:39.760Z,102000.66
2018-07-06T19:20:08.990Z,102002.63
2018-07-06T19:22:38.049Z,102001.52
2018-07-06T19:25:07.418Z,102002.10
2018-07-06T19:27:37.000Z,102006.03
2018-07-06T19:30:06.573Z,102006.02
2018-07-06T19:32:35.742Z,102006.36
2018-07-06T19:35:04.985Z,102016.27
2018-07-06T19:37:34.649Z,102016.70
2018-07-06T19:40:04.374Z,102022.98
2018-07-06T19:42:33.858Z,102021.59
2018-07-06T19:45:03.129Z,102026.53
2018-07-06T19:47:32.204Z,102033.40
2018-07-06T19:50:01.010Z,102036.12
2018-07-06T19:52:30.485Z,102033.78
2018-07-06T19:54:59.597Z,102042.39
2018-07-06T19:57:29.430Z,102042.91
2018-07-06T19:59:58.703Z,102047.27
2018-07-06T20:02:27.807Z,102051.75
2018-07-06T20:04:57.171Z,102058.66
2018-07-06T20:07:25.951Z,102062.63
2018-07-06T20:09:54.706Z,102066.63
2018-07-06T20:12:24.177Z,102069.12
2018-07-06T20:14:52.922Z,102068.98
2018-07-06T20:17:22.031Z,102071.53
2018-07-06T20:19:51.704Z,102080.13
2018-07-06T20:22:21.029Z,102067.02
2018-07-06T20:24:51.224Z,102075.37
2018-07-06T20:27:20.597Z,102083.16
2018-07-06T20:29:51.257Z,102079.78
2018-07-06T20:32:20.135Z,102082.08
2018-07-06T20:34:49.416Z,102082.38
2018-07-06T20:37:18.576Z,102084.52
2018-07-06T20:39:47.735Z,102080.83
2018-07-06T20:42:17.312Z,102086.66
2018-07-06T20:44:46.758Z,102089.61
2018-07-06T20:47:15.893Z,102095.09
2018-07-06T20:49:44.861Z,102088.88
2018-07-06T20:52:13.919Z,102093.42
2018-07-06T20:54:43.700Z,102094.77
2018-07-06T20:57:12.891Z,102087.27
2018-07-06T20:59:42.129Z,102093.73
2018-07-06T21:02:11.083Z,102086.68
2018-07-06T21:04:40.406Z,102086.38
2018-07-06T21:07:10.220Z,102093.82
2018-07-06T21:09:39.114Z,102093.20
2018-07-06T21:12:08.500Z,102100.95
2018-07-06T21:14:38.242Z,102106.62
2018-07-06T21:17:07.240Z,102100.52
2018-07-06T21:19:36.617Z,102103.92
2018-07-06T21:22:05.695Z,102108.44
2018-07-06T21:24:34.546Z,102105.56
2018-07-06T21:27:04.200Z,102106.52
2018-07-06T21:29:33.422Z,102106.94
2018-07-06T21:32:02.255Z,102107.86
2018-07-06T21:34:31.401Z,102101.78
2018-07-06T21:37:01.682Z,102108.16
2018-07-06T21:39:31.758Z,102099.20
2018-07-06T21:42:01.887Z,102108.66
2018-07-06T21:44:31.694Z,102108.91
2018-07-06T21:47:01.518Z,102106.48
2018-07-06T21:49:31.172Z,102101.33
2018-07-06T21:52:01.018Z,102103.58
2018-07-06T21:54:30.433Z,102102.08
2018-07-06T21:56:59.271Z,102099.74
2018-07-06T21:59:28.773Z,102102.16
2018-07-06T22:01:57.889Z,102105.78
2018-07-06T22:04:26.706Z,102106.52
2018-07-06T22:06:55.638Z,102104.51
2018-07-06T22:09:24.730Z,102104.59
2018-07-06T22:11:54.164Z,102100.31
2018-07-06T22:14:23.531Z,102109.73
2018-07-06T22:16:52.282Z,102101.66
2018-07-06T22:19:21.040Z,102108.05
2018-07-06T22:21:50.175Z,102105.94
2018-07-06T22:24:19.356Z,102105.30
2018-07-06T22:26:48.752Z,102104.25
2018-07-06T22:29:17.542Z,102103.28
2018-07-06T22:31:46.313Z,102101.20
2018-07-06T22:34:15.071Z,102101.89
2018-07-06T22:36:43.814Z,102096.75
2018-07-06T22:39:12.791Z,102102.28
2018-07-06T22:41:41.881Z,102099.29
2018-07-06T22:44:11.304Z,102103.33
2018-07-06T22:46:40.183Z,102097.16
2018-07-06T22:49:08.944Z,102098.52
2018-07-06T22:51:37.945Z,102093.44
2018-07-06T22:54:07.007Z,102094.63
2018-07-06T22:56:36.167Z,102094.95
2018-07-06T22:59:05.584Z,102092.75
2018-07-06T23:01:34.694Z,102091.48
2018-07-06T23:04:03.434Z,102092.98
2018-07-06T23:06:32.566Z,102081.98
2018-07-06T23:09:01.423Z,102090.84
2018-07-06T23:11:30.833Z,102093.90
2018-07-06T23:14:00.270Z,102094.25
2018-07-06T23:16:29.107Z,102096.84
2018-07-06T23:18:57.887Z,102095.28
2018-07-06T23:21:26.675Z,102101.94
2018-07-06T23:23:55.782Z,102107.56
2018-07-06T23:26:24.665Z,102101.72
2018-07-06T23:28:53.703Z,102096.94
2018-07-06T23:31:23.087Z,102100.38
2018-07-06T23:33:51.972Z,102094.14
2018-07-06T23:36:21.227Z,102101.81
2018-07-06T23:38:50.333Z,102097.25
2018-07-06T23:41:19.470Z,102094.30
2018-07-06T23:43:48.223Z,102101.45
2018-07-06T23:46:17.309Z,102106.19
2018-07-06T23:48:46.082Z,102106.51
2018-07-06T23:51:14.914Z,102099.73
2018-07-06T23:53:44.645Z,102097.37
2018-07-06T23:56:14.023Z,102103.44
2018-07-06T23:58:43.146Z,102101.59
